createdAt,value
2022-12-16T06:42:30.028Z,26.00
2022-12-16T06:45:34.697Z,22.10
2022-12-16T06:48:26.104Z,21.15
2022-12-16T06:51:14.726Z,23.58
2022-12-16T06:54:03.254Z,27.05
2022-12-16T06:56:51.791Z,23.33
2022-12-16T06:59:40.409Z,24.42
2022-12-16T07:02:32.299Z,23.70
2022-12-16T07:05:20.971Z,23.85
2022-12-16T07:08:11.457Z,24.08
2022-12-16T07:11:15.309Z,24.77
2022-12-16T07:14:05.178Z,22.73
2022-12-16T07:16:53.764Z,28.00
2022-12-16T07:19:42.358Z,22.42
2022-12-16T07:22:30.812Z,25.40
2022-12-16T07:25:20.124Z,23.20
2022-12-16T07:28:15.129Z,25.73
2022-12-16T07:31:05.185Z,26.08
2022-12-16T07:33:53.616Z,23.15
2022-12-16T07:36:42.157Z,21.55
2022-12-16T07:39:30.681Z,21.52
2022-12-16T07:42:19.209Z,30.63
2022-12-16T07:45:07.671Z,19.77
2022-12-16T07:47:56.176Z,20.70
2022-12-16T07:50:44.601Z,20.02
2022-12-16T07:53:33.487Z,22.45
2022-12-16T07:56:22.197Z,21.02
2022-12-16T07:59:10.731Z,21.98
2022-12-16T08:01:59.320Z,23.33
2022-12-16T08:04:48.181Z,23.42
2022-12-16T08:07:39.981Z,22.00
2022-12-16T08:10:28.934Z,25.80
2022-12-16T08:13:26.387Z,23.02
2022-12-16T08:16:19.223Z,22.98
2022-12-16T08:19:11.080Z,22.10
2022-12-16T08:22:00.116Z,21.70
2022-12-16T08:24:53.339Z,26.38
2022-12-16T08:27:42.594Z,24.75
2022-12-16T08:30:31.654Z,22.15
2022-12-16T08:33:20.196Z,24.23
2022-12-16T08:36:14.875Z,21.88
2022-12-16T08:39:03.475Z,20.67
2022-12-16T08:41:54.509Z,25.90
2022-12-16T08:44:43.869Z,23.67
2022-12-16T08:47:32.399Z,22.90
2022-12-16T08:50:21.019Z,23.30
2022-12-16T08:53:09.620Z,20.50
2022-12-16T08:55:58.172Z,22.20
2022-12-16T08:58:46.689Z,22.33
2022-12-16T09:01:35.244Z,20.23
2022-12-16T09:04:24.022Z,19.50
2022-12-16T09:07:12.431Z,21.77
2022-12-16T09:10:00.958Z,20.65
2022-12-16T09:12:49.430Z,26.45
2022-12-16T09:15:38.033Z,19.13
2022-12-16T09:18:26.681Z,18.42
2022-12-16T09:21:15.351Z,19.33
2022-12-16T09:24:04.090Z,30.52
2022-12-16T09:26:52.786Z,19.95
2022-12-16T09:29:45.028Z,24.20
2022-12-16T09:32:33.831Z,26.88
2022-12-16T09:35:22.370Z,21.83
2022-12-16T09:38:11.446Z,26.35
2022-12-16T09:41:01.625Z,23.77
2022-12-16T09:44:16.077Z,25.85
2022-12-16T09:47:24.650Z,24.25
2022-12-16T09:50:14.834Z,21.50
2022-12-16T09:53:11.450Z,24.58
2022-12-16T09:56:03.671Z,25.50
2022-12-16T09:59:00.052Z,22.83
2022-12-16T10:01:57.859Z,28.45
2022-12-16T10:04:47.266Z,23.33
2022-12-16T10:07:40.185Z,26.35
2022-12-16T10:11:04.210Z,20.83
2022-12-16T10:17:01.044Z,26.08
2022-12-16T10:20:10.591Z,24.77
2022-12-16T10:23:08.254Z,76.30
2022-12-16T10:26:23.310Z,26.67
2022-12-16T10:29:24.558Z,31.13
2022-12-16T10:32:12.992Z,24.35
2022-12-16T10:35:02.055Z,39.67
2022-12-16T10:38:00.928Z,27.98
2022-12-16T10:40:54.467Z,30.17
2022-12-16T10:44:00.978Z,29.73
2022-12-16T10:46:54.294Z,35.30
2022-12-16T10:49:44.163Z,28.88
2022-12-16T10:52:34.667Z,34.70
2022-12-16T10:56:02.351Z,26.88
2022-12-16T10:59:07.484Z,23.70
2022-12-16T11:01:56.102Z,26.30
2022-12-16T11:04:56.894Z,25.50
2022-12-16T11:07:49.740Z,28.63
2022-12-16T11:10:56.410Z,40.45
2022-12-16T11:13:49.950Z,45.47
2022-12-16T11:16:43.652Z,35.92
2022-12-16T11:19:49.463Z,33.70
2022-12-16T11:22:40.711Z,33.40
2022-12-16T11:25:38.027Z,37.50
2022-12-16T11:28:32.442Z,34.40
2022-12-16T11:31:26.036Z,40.47
2022-12-16T11:34:16.040Z,35.03
2022-12-16T11:37:08.452Z,34.85
2022-12-16T11:39:59.641Z,39.80
2022-12-16T11:42:53.244Z,40.10
2022-12-16T11:45:42.971Z,40.47
2022-12-16T11:49:06.900Z,38.10
2022-12-16T11:52:20.926Z,40.88
2022-12-16T11:55:16.716Z,41.47
2022-12-16T11:58:17.219Z,40.47
2022-12-16T12:01:19.206Z,43.00
2022-12-16T12:04:10.254Z,40.60
2022-12-16T12:07:11.397Z,40.00
2022-12-16T12:10:07.380Z,39.28
2022-12-16T12:13:22.820Z,36.50
2022-12-16T12:16:26.990Z,44.08
2022-12-16T12:19:26.982Z,40.95
2022-12-16T12:22:23.603Z,40.92
2022-12-16T12:25:39.522Z,34.47
2022-12-16T12:28:29.084Z,39.30
2022-12-16T12:31:34.661Z,40.10
2022-12-16T12:34:37.504Z,38.72
2022-12-16T12:37:33.462Z,45.03
2022-12-16T12:40:43.120Z,50.45
2022-12-16T12:43:46.008Z,40.17
2022-12-16T12:46:59.919Z,47.03
2022-12-16T12:52:57.981Z,46.70
2022-12-16T12:56:02.279Z,51.33
2022-12-16T12:58:54.066Z,43.65
2022-12-16T13:01:49.764Z,51.22
2022-12-16T13:04:42.054Z,53.60
2022-12-16T13:07:31.063Z,59.60
2022-12-16T13:10:36.739Z,48.70
2022-12-16T13:13:49.546Z,45.45
2022-12-16T13:17:01.610Z,48.90
2022-12-16T13:19:54.669Z,53.05
2022-12-16T13:23:04.378Z,51.03
2022-12-16T13:25:59.126Z,46.92
2022-12-16T13:28:50.866Z,48.50
2022-12-16T13:31:40.561Z,50.38
2022-12-16T13:34:44.968Z,56.88
2022-12-16T13:37:45.894Z,54.00
2022-12-16T13:40:49.669Z,47.53
2022-12-16T13:47:06.772Z,45.78
2022-12-16T13:50:01.853Z,44.85
2022-12-16T13:53:14.291Z,50.88
2022-12-16T13:56:04.723Z,51.60
2022-12-16T13:58:58.683Z,55.13
2022-12-16T14:02:04.260Z,49.60
2022-12-16T14:05:02.404Z,49.92
2022-12-16T14:07:55.660Z,49.15
2022-12-16T14:10:57.395Z,52.83
2022-12-16T14:14:06.889Z,51.15
2022-12-16T14:17:19.055Z,53.50
2022-12-16T14:20:22.005Z,50.65
2022-12-16T14:23:55.828Z,57.67
2022-12-16T14:26:42.067Z,54.45
2022-12-16T14:29:43.310Z,55.58
2022-12-16T14:32:53.305Z,60.75
2022-12-16T14:35:45.817Z,59.47
2022-12-16T14:38:51.843Z,62.00
2022-12-16T14:41:44.798Z,56.42
2022-12-16T14:44:44.511Z,56.17
2022-12-16T14:47:41.975Z,57.70
2022-12-16T14:50:47.783Z,55.95
2022-12-16T14:53:39.607Z,50.47
2022-12-16T14:56:36.343Z,54.72
2022-12-16T14:59:41.076Z,61.25
2022-12-16T15:02:48.734Z,56.15
2022-12-16T15:05:40.164Z,61.17
2022-12-16T15:08:33.548Z,55.55
2022-12-16T15:11:24.343Z,51.60
2022-12-16T15:14:19.044Z,51.78
2022-12-16T15:17:10.715Z,56.58
2022-12-16T15:20:07.220Z,53.13
2022-12-16T15:22:57.278Z,48.30
2022-12-16T15:25:47.770Z,54.30
2022-12-16T15:28:56.444Z,59.08
2022-12-16T15:31:51.435Z,48.80
2022-12-16T15:35:08.049Z,56.22
2022-12-16T15:38:04.476Z,54.10
2022-12-16T15:40:55.759Z,49.22
2022-12-16T15:43:57.313Z,48.80
2022-12-16T15:46:49.618Z,53.97
2022-12-16T15:49:40.066Z,52.30
2022-12-16T15:52:46.802Z,57.05
2022-12-16T15:56:02.604Z,57.50
2022-12-16T15:58:55.423Z,52.97
2022-12-16T16:01:47.424Z,52.65
2022-12-16T16:04:51.999Z,56.03
2022-12-16T16:07:43.174Z,54.10
2022-12-16T16:10:41.415Z,53.92
2022-12-16T16:13:30.384Z,60.38
2022-12-16T16:16:19.376Z,51.97
2022-12-16T16:19:07.864Z,55.75
2022-12-16T16:21:56.426Z,54.45
2022-12-16T16:24:44.965Z,52.65
2022-12-16T16:27:35.714Z,58.92
2022-12-16T16:30:24.800Z,50.03
2022-12-16T16:33:13.252Z,62.10
2022-12-16T16:36:01.699Z,54.13
2022-12-16T16:38:50.133Z,57.08
2022-12-16T16:41:38.535Z,61.28
2022-12-16T16:44:27.005Z,58.15
2022-12-16T16:47:15.686Z,58.10
2022-12-16T16:50:07.828Z,59.85
2022-12-16T16:52:56.213Z,54.80
2022-12-16T16:55:45.872Z,54.28
2022-12-16T16:58:41.199Z,55.70
2022-12-16T17:01:40.327Z,52.58
2022-12-16T17:04:28.861Z,54.85
2022-12-16T17:07:17.321Z,53.63
2022-12-16T17:10:05.765Z,54.58
2022-12-16T17:12:54.706Z,59.10
2022-12-16T17:15:50.326Z,54.05
2022-12-16T17:18:43.788Z,52.95
2022-12-16T17:21:34.181Z,56.58
2022-12-16T17:24:22.642Z,55.45
2022-12-16T17:27:11.086Z,55.08
2022-12-16T17:29:59.606Z,54.08
2022-12-16T17:32:48.093Z,54.28
2022-12-16T17:35:36.658Z,48.60
2022-12-16T17:38:24.999Z,48.00
2022-12-16T17:41:14.228Z,48.22
2022-12-16T17:44:02.646Z,48.20
2022-12-16T17:46:51.126Z,48.25
2022-12-16T17:49:41.479Z,48.30
2022-12-16T17:52:30.115Z,51.80
2022-12-16T17:55:18.502Z,46.90
2022-12-16T17:58:07.080Z,51.97
2022-12-16T18:00:56.572Z,44.95
2022-12-16T18:03:45.145Z,43.22
2022-12-16T18:06:33.708Z,46.47
2022-12-16T18:09:22.161Z,37.80
2022-12-16T18:12:10.601Z,50.47
2022-12-16T18:14:59.062Z,47.17
2022-12-16T18:17:47.471Z,43.90
2022-12-16T18:20:36.087Z,43.58
2022-12-16T18:23:24.541Z,39.53
2022-12-16T18:26:22.723Z,40.35
2022-12-16T18:29:11.328Z,38.28
2022-12-16T18:31:59.941Z,40.65
2022-12-16T18:34:48.487Z,43.75
2022-12-16T18:37:37.018Z,39.53
2022-12-16T18:40:25.867Z,41.70
2022-12-16T18:43:14.244Z,39.45
2022-12-16T18:46:02.662Z,41.22
2022-12-16T18:48:51.129Z,41.53
2022-12-16T18:51:39.456Z,40.42
2022-12-16T18:54:28.163Z,42.90
2022-12-16T18:57:16.571Z,39.00
2022-12-16T19:00:05.071Z,41.97
2022-12-16T19:02:53.675Z,35.88
2022-12-16T19:05:42.217Z,41.30
2022-12-16T19:08:30.847Z,36.90
2022-12-16T19:11:20.033Z,40.08
2022-12-16T19:14:11.617Z,38.17
2022-12-16T19:17:00.038Z,38.08
2022-12-16T19:19:48.479Z,45.50
2022-12-16T19:22:36.911Z,41.35
2022-12-16T19:25:25.559Z,38.45
2022-12-16T19:28:14.003Z,40.17
2022-12-16T19:31:02.430Z,39.50
2022-12-16T19:33:50.855Z,41.83
2022-12-16T19:36:46.553Z,37.63
2022-12-16T19:39:35.886Z,42.97
2022-12-16T19:42:24.302Z,41.03
2022-12-16T19:45:12.797Z,39.58
2022-12-16T19:48:01.234Z,42.10
2022-12-16T19:50:49.773Z,37.42
2022-12-16T19:53:38.234Z,37.40
2022-12-16T19:56:26.742Z,38.50
2022-12-16T19:59:15.114Z,40.35
2022-12-16T20:02:03.794Z,41.45
2022-12-16T20:04:52.279Z,39.83
2022-12-16T20:07:44.623Z,40.30
2022-12-16T20:10:32.995Z,37.63
2022-12-16T20:13:26.015Z,37.80
2022-12-16T20:16:32.289Z,40.78
2022-12-16T20:19:21.088Z,38.17
2022-12-16T20:22:13.205Z,42.60
2022-12-16T20:25:04.681Z,38.10
2022-12-16T20:27:53.055Z,36.65
2022-12-16T20:30:41.875Z,39.67
2022-12-16T20:33:35.712Z,36.70
2022-12-16T20:36:25.670Z,34.85
2022-12-16T20:39:14.153Z,38.35
2022-12-16T20:42:02.867Z,33.72
2022-12-16T20:44:51.352Z,37.33
2022-12-16T20:47:40.109Z,35.33
2022-12-16T20:50:28.902Z,36.92
2022-12-16T20:53:17.319Z,36.10
2022-12-16T20:56:05.997Z,35.78
2022-12-16T20:58:56.153Z,33.42
2022-12-16T21:04:53.844Z,37.15
2022-12-16T21:07:43.379Z,35.38
2022-12-16T21:10:31.948Z,36.20
2022-12-16T21:13:28.246Z,36.83
2022-12-16T21:16:18.631Z,33.97
2022-12-16T21:19:06.992Z,34.05
2022-12-16T21:25:03.972Z,31.83
2022-12-16T21:27:52.475Z,30.48
2022-12-16T21:30:41.077Z,30.92
2022-12-16T21:33:40.921Z,33.33
2022-12-16T21:36:29.557Z,32.17
2022-12-16T21:39:17.984Z,33.65
2022-12-16T21:42:06.431Z,33.42
2022-12-16T21:44:56.346Z,36.95
2022-12-16T21:47:44.916Z,31.15
2022-12-16T21:50:33.407Z,31.60
2022-12-16T21:53:21.869Z,32.83
2022-12-16T21:56:14.983Z,31.15
2022-12-16T22:01:53.297Z,30.17
2022-12-16T22:04:44.974Z,30.40
2022-12-16T22:07:33.410Z,29.90
2022-12-16T22:10:21.802Z,33.90
2022-12-16T22:13:10.335Z,31.35
2022-12-16T22:16:02.468Z,30.77
2022-12-16T22:18:51.431Z,31.35
2022-12-16T22:21:40.154Z,33.83
2022-12-16T22:24:28.716Z,34.25
2022-12-16T22:27:17.150Z,33.40
2022-12-16T22:30:05.501Z,32.92
2022-12-16T22:32:53.895Z,35.22
2022-12-16T22:35:45.158Z,35.03
2022-12-16T22:38:33.575Z,34.67
2022-12-16T22:41:22.533Z,35.67
2022-12-16T22:44:10.984Z,41.15
2022-12-16T22:46:59.444Z,39.40
2022-12-16T22:49:47.876Z,36.75
2022-12-16T22:52:36.357Z,37.63
2022-12-16T22:55:24.900Z,41.13
2022-12-16T22:58:13.424Z,34.08
2022-12-16T23:01:01.851Z,34.90
2022-12-16T23:03:52.634Z,32.30
2022-12-16T23:06:42.254Z,36.25
2022-12-16T23:09:30.964Z,36.35
2022-12-16T23:12:19.462Z,41.72
2022-12-16T23:15:07.933Z,37.85
2022-12-16T23:17:56.366Z,39.08
2022-12-16T23:20:44.813Z,36.75
2022-12-16T23:23:34.434Z,37.80
2022-12-16T23:26:24.120Z,36.90
2022-12-16T23:29:13.565Z,37.00
2022-12-16T23:32:02.061Z,49.60
2022-12-16T23:34:50.572Z,42.00
2022-12-16T23:37:39.320Z,40.40
2022-12-16T23:40:28.169Z,45.13
2022-12-16T23:43:17.560Z,49.95
2022-12-16T23:46:06.049Z,40.58
2022-12-16T23:48:54.528Z,43.45
2022-12-16T23:51:43.888Z,48.67
2022-12-16T23:54:32.296Z,45.58
2022-12-16T23:57:20.672Z,43.40
